Aérodrome :
LOGIN :

S'inscrire | Disclaimer

   EN    FR    IT 

 










Légende :    VFR   VFR Marginal   IFR   IFR Intensif   IFR Très Intensif
Visi : 
Plafond : 
>= 8 km
>= 3000ft
5 à 8 km
1000 à 3000 ft
1500m à 5 km
500 à 1000 ft
800 à 1500m
200 à 500 ft
< 800m
< 200 ft
Symboles :   Orages  Brouillard  Fortes neiges  Fortes précipitations  Vent > 20 kt
SIGMETs :   Divers  Orages  Givrage  Turbulence  Onde Orograph.  Cendres Volcan.






- Altitude de l'aérodrome : 39 ft
- Code IATA : ANR


EBAW - Anvers / Antwerpen Deurne

DERNIER METAR :
  • 110350Z AUTO 00000KT 7000 // NCD 09/07 Q1008

METARs EXPIRÉS :
  • 110320Z AUTO 05002KT CAVOK 08/07 Q1008
  • 110250Z AUTO 10003KT CAVOK 10/08 Q1008
  • 110220Z AUTO VRB01KT CAVOK 10/07 Q1008
  • 110150Z AUTO 21003KT CAVOK 13/10 Q1008
  • 110120Z AUTO 21003KT CAVOK 11/08 Q1008

TAF TAF EBAW
Valide du 11 à 03h jusqu'au 11 à 12h UTC


110210Z 1103/1112 16003KT 9999 FEW025
PROB30
TEMPO 1103/1107 4000 MIFG BR
TEMPO 1111/1112 26015G25KT 3500 SHRA



MET'MAP, la Météo Aéronautique d'un coup d'oeil ! - Copyright ORBIFLY Décembre 2007 - Disclaimer

ORBIFLY MET'MAP TEAM :

Programmation & Développement : Alexandra Zaïnal
Sur une idée originale de : Baudouin d'Aumeries
Assistance à la programmation : Marc-Olivier Méhu
Soutien technique & logistique : Manuel Goepfert

Contact : metmap@orbifly.com




SOURCES & CREDITS :

   NOAA